Time;durP1;ratioP1;P1;durP2;ratioP2;P2;SDS_P1;SDS_P2;PMS_P1;PMS_P2;Temp;Humidity;BMP_temperature;BMP_pressure;BME280_temperature;BME280_humidity;BME280_pressure;Samples;Min_cycle;Max_cycle;Signal;HPM_P1;HPM_P2
2023/04/01 00:01:50;;;;;;;13.13;2.03;;;;;;;11.73;77.58;99750.56;5075523;28;20531;-63
2023/04/01 00:04:17;;;;;;;9.77;2.00;;;;;;;11.96;78.19;99760.00;5078001;28;20056;-63
2023/04/01 00:06:45;;;;;;;14.95;2.60;;;;;;;12.05;77.88;99760.66;5075530;28;20053;-63
2023/04/01 00:09:12;;;;;;;11.05;2.00;;;;;;;11.79;77.84;99760.19;5077545;28;20075;-63
2023/04/01 00:11:39;;;;;;;12.02;2.20;;;;;;;11.70;79.90;99754.00;5076506;28;20492;-64
2023/04/01 00:14:07;;;;;;;11.45;2.10;;;;;;;11.62;79.12;99747.41;5075379;28;20064;-63
2023/04/01 00:16:34;;;;;;;8.38;1.60;;;;;;;11.59;79.52;99756.38;5075774;28;20044;-62
2023/04/01 00:19:02;;;;;;;9.35;1.98;;;;;;;11.64;79.23;99753.44;5076725;28;20056;-62
2023/04/01 00:21:30;;;;;;;14.50;2.42;;;;;;;11.76;79.70;99760.91;5075164;28;20502;-64
2023/04/01 00:23:57;;;;;;;8.90;2.20;;;;;;;11.61;79.87;99761.56;5077742;28;20403;-63
2023/04/01 00:26:25;;;;;;;14.15;2.33;;;;;;;11.81;79.46;99761.47;5076095;28;20044;-63
2023/04/01 00:28:52;;;;;;;13.15;2.10;;;;;;;11.81;79.13;99760.66;5076498;28;20400;-64
2023/04/01 00:31:20;;;;;;;8.95;1.83;;;;;;;11.93;79.29;99755.94;5075081;28;20064;-63
2023/04/01 00:33:48;;;;;;;12.00;2.05;;;;;;;11.91;78.71;99758.25;5077835;28;20036;-62
2023/04/01 00:36:21;;;;;;;10.50;2.15;;;;;;;11.71;78.79;99761.94;5074775;28;20526;-63
2023/04/01 00:38:50;;;;;;;11.18;1.70;;;;;;;11.56;79.84;99759.81;5075375;28;20412;-62
2023/04/01 00:41:19;;;;;;;11.98;2.65;;;;;;;11.68;80.13;99761.81;5075635;28;20047;-62
2023/04/01 00:43:49;;;;;;;10.73;2.30;;;;;;;11.85;79.75;99761.59;5076169;28;20067;-63
2023/04/01 00:46:16;;;;;;;9.60;2.25;;;;;;;11.92;79.28;99767.34;5075732;28;20056;-62
2023/04/01 00:48:51;;;;;;;7.55;1.67;;;;;;;11.89;79.45;99757.78;5038659;28;20049;-62
2023/04/01 00:51:27;;;;;;;9.02;1.80;;;;;;;11.59;79.36;99766.59;5062900;28;20056;-63
2023/04/01 00:53:56;;;;;;;7.78;1.80;;;;;;;11.42;80.70;99762.09;5059181;28;20044;-62
2023/04/01 00:57:00;;;;;;;9.38;2.22;;;;;;;11.45;80.47;99763.38;5073082;28;20047;-63
2023/04/01 00:59:34;;;;;;;13.57;2.53;;;;;;;11.53;80.79;99760.50;5061193;28;20076;-63
2023/04/01 01:02:03;;;;;;;9.05;1.55;;;;;;;11.43;81.46;99758.19;5052074;28;20049;-63
2023/04/01 01:04:32;;;;;;;9.80;2.00;;;;;;;11.47;81.77;99750.84;5075591;28;20053;-63
2023/04/01 01:06:59;;;;;;;8.85;2.25;;;;;;;11.66;80.93;99755.84;5074303;28;20492;-63
2023/04/01 01:09:51;;;;;;;10.57;1.88;;;;;;;11.61;80.44;99756.03;5076805;28;20059;-62
2023/04/01 01:12:23;;;;;;;10.00;1.75;;;;;;;11.66;80.43;99753.06;5073300;28;20063;-62
2023/04/01 01:15:08;;;;;;;14.20;1.88;;;;;;;11.60;81.02;99752.47;5075683;28;20056;-62
2023/04/01 01:18:05;;;;;;;12.05;2.47;;;;;;;11.65;81.87;99756.97;5074298;28;20055;-63
2023/04/01 01:20:57;;;;;;;10.60;1.90;;;;;;;11.81;80.48;99755.16;5073778;28;20048;-62
2023/04/01 01:24:13;;;;;;;8.80;1.77;;;;;;;11.57;80.03;99758.69;5075019;28;20056;-63
2023/04/01 01:26:50;;;;;;;10.77;1.30;;;;;;;11.53;80.40;99754.97;5039724;28;20063;-62
2023/04/01 01:29:26;;;;;;;10.07;2.10;;;;;;;11.59;79.86;99764.66;5076118;28;20040;-62
2023/04/01 01:32:08;;;;;;;12.07;1.80;;;;;;;11.68;80.25;99762.59;5073255;28;20063;-62
2023/04/01 01:35:16;;;;;;;9.20;1.95;;;;;;;11.41;80.81;99754.97;5065324;28;20075;-63
2023/04/01 01:37:44;;;;;;;10.65;2.00;;;;;;;11.41;82.23;99762.44;5070778;28;20053;-62
2023/04/01 01:40:12;;;;;;;10.90;1.60;;;;;;;11.77;81.83;99765.28;5021727;28;20052;-62
2023/04/01 01:42:46;;;;;;;11.60;2.47;;;;;;;11.45;82.06;99768.88;5057145;28;20048;-62
2023/04/01 01:45:17;;;;;;;9.32;1.80;;;;;;;11.20;83.79;99760.56;5055663;28;20049;-62
2023/04/01 01:47:46;;;;;;;11.43;2.00;;;;;;;11.34;84.59;99776.78;5053280;28;20049;-61
2023/04/01 01:50:14;;;;;;;7.53;1.30;;;;;;;11.00;85.94;99771.63;5071948;28;20059;-64
2023/04/01 01:52:41;;;;;;;12.07;1.95;;;;;;;10.93;87.74;99776.88;5057598;28;20068;-62
2023/04/01 01:55:29;;;;;;;8.93;1.48;;;;;;;11.11;86.45;99778.31;5058724;28;20060;-63
2023/04/01 01:58:01;;;;;;;7.25;1.83;;;;;;;11.10;85.66;99769.25;5072643;28;20059;-62
2023/04/01 02:00:29;;;;;;;10.48;2.08;;;;;;;11.11;85.25;99787.41;5073210;28;20057;-62
2023/04/01 02:03:00;;;;;;;11.43;1.52;;;;;;;11.20;86.33;99790.88;5040974;28;20052;-62
2023/04/01 02:05:30;;;;;;;12.57;2.63;;;;;;;11.20;85.53;99784.56;5065385;28;20152;-63
2023/04/01 02:08:09;;;;;;;11.05;1.77;;;;;;;11.18;86.60;99782.13;5071636;28;20041;-62
2023/04/01 02:10:41;;;;;;;9.65;1.75;;;;;;;11.20;86.21;99788.13;5066292;28;20055;-63
2023/04/01 02:13:16;;;;;;;10.15;2.05;;;;;;;11.13;85.73;99792.56;5058218;28;20136;-62
2023/04/01 02:15:46;;;;;;;8.98;1.60;;;;;;;11.20;85.49;99790.88;5056830;28;20052;-63
2023/04/01 02:18:14;;;;;;;10.90;1.98;;;;;;;11.07;85.04;99782.91;5057845;28;20049;-62
2023/04/01 02:20:42;;;;;;;15.07;1.83;;;;;;;11.16;84.53;99783.59;5073180;28;20802;-62
2023/04/01 02:23:10;;;;;;;11.73;1.83;;;;;;;10.97;84.20;99789.63;5074817;28;20400;-62
2023/04/01 02:25:39;;;;;;;13.43;2.38;;;;;;;10.96;84.04;99790.78;5056750;28;20427;-62
2023/04/01 02:28:08;;;;;;;10.90;1.95;;;;;;;11.21;83.49;99786.16;5074737;28;20073;-62
2023/04/01 02:30:38;;;;;;;10.57;1.85;;;;;;;11.18;82.49;99784.91;5055620;28;20044;-63
2023/04/01 02:33:05;;;;;;;13.85;2.22;;;;;;;11.15;81.58;99787.53;5073722;28;20052;-62
2023/04/01 02:35:37;;;;;;;13.52;2.33;;;;;;;11.23;81.46;99783.88;5074654;28;20427;-62
2023/04/01 02:38:05;;;;;;;14.43;2.30;;;;;;;11.22;81.02;99788.59;5057860;28;20040;-62
2023/04/01 02:41:03;;;;;;;10.82;1.98;;;;;;;11.43;81.23;99802.31;5056394;28;20044;-62
2023/04/01 02:43:32;;;;;;;12.52;2.65;;;;;;;11.37;80.46;99781.59;5054912;28;20476;-62
2023/04/01 02:46:01;;;;;;;11.18;1.67;;;;;;;11.38;79.64;99790.69;5055187;28;20072;-62
2023/04/01 02:48:29;;;;;;;10.52;1.77;;;;;;;11.35;79.38;99797.69;5072173;28;20067;-63
2023/04/01 02:50:56;;;;;;;8.02;1.77;;;;;;;11.31;79.20;99791.25;5071400;28;20603;-62
2023/04/01 02:53:23;;;;;;;12.13;1.95;;;;;;;11.47;78.42;99794.97;5073064;28;20053;-63
2023/04/01 02:55:51;;;;;;;9.57;1.60;;;;;;;11.36;78.62;99785.53;5069637;28;20052;-62
2023/04/01 02:58:19;;;;;;;8.40;1.25;;;;;;;11.28;78.78;99800.19;5074867;28;20056;-62
2023/04/01 03:00:46;;;;;;;8.50;1.30;;;;;;;11.25;78.77;99803.63;5073829;28;20067;-64
2023/04/01 03:03:14;;;;;;;9.10;1.25;;;;;;;11.34;78.91;99799.66;5078501;28;20044;-62
2023/04/01 03:05:41;;;;;;;10.90;1.80;;;;;;;11.13;79.32;99814.63;5076060;28;20448;-61
2023/04/01 03:08:09;;;;;;;11.15;2.08;;;;;;;11.22;79.50;99810.66;5079170;28;20044;-62
2023/04/01 03:10:36;;;;;;;10.70;2.15;;;;;;;11.27;79.33;99817.88;5060472;28;20048;-63
2023/04/01 03:13:03;;;;;;;10.65;1.50;;;;;;;11.20;79.18;99812.94;5077897;28;20040;-63
2023/04/01 03:15:31;;;;;;;12.07;1.92;;;;;;;11.27;79.61;99818.69;5075340;28;20148;-62
2023/04/01 03:17:59;;;;;;;12.73;2.33;;;;;;;11.39;79.42;99817.91;5057314;28;20049;-62
2023/04/01 03:20:26;;;;;;;11.25;1.73;;;;;;;11.27;79.33;99813.19;5060678;28;20056;-63
2023/04/01 03:22:54;;;;;;;8.10;1.25;;;;;;;11.14;79.11;99821.75;5078391;28;20041;-63
2023/04/01 03:25:21;;;;;;;12.00;2.00;;;;;;;11.08;80.15;99829.41;5076432;28;20499;-63
2023/04/01 03:27:48;;;;;;;13.20;1.85;;;;;;;11.20;79.96;99831.41;5076919;28;20151;-63
2023/04/01 03:30:16;;;;;;;11.55;2.38;;;;;;;11.00;81.32;99840.53;5078262;28;20048;-63
2023/04/01 03:32:49;;;;;;;13.90;2.42;;;;;;;11.10;81.96;99834.59;5076470;28;20044;-63
2023/04/01 03:35:17;;;;;;;13.63;2.28;;;;;;;10.95;82.45;99833.25;5078295;28;20060;-63
2023/04/01 03:37:45;;;;;;;13.80;2.13;;;;;;;11.11;82.15;99831.50;5076690;28;20052;-63
2023/04/01 03:40:13;;;;;;;9.60;1.75;;;;;;;10.79;82.74;99846.03;5076567;28;20053;-62
2023/04/01 03:42:40;;;;;;;12.20;1.60;;;;;;;10.97;82.95;99835.66;5058831;28;20044;-62
2023/04/01 03:45:09;;;;;;;11.35;1.90;;;;;;;11.03;82.69;99832.38;5077027;28;20403;-63
2023/04/01 03:47:36;;;;;;;13.43;2.47;;;;;;;10.95;82.02;99826.94;5075200;28;20399;-62
2023/04/01 03:50:05;;;;;;;11.60;2.13;;;;;;;10.88;81.31;99835.75;5060469;28;20048;-62
2023/04/01 03:52:33;;;;;;;12.82;1.60;;;;;;;10.97;80.23;99836.47;5074918;28;20044;-62
2023/04/01 03:55:01;;;;;;;10.93;1.80;;;;;;;11.05;80.06;99835.59;5077197;28;20060;-61
2023/04/01 03:57:31;;;;;;;12.77;2.17;;;;;;;11.01;79.53;99842.13;5075623;28;20052;-62
2023/04/01 04:00:04;;;;;;;10.25;1.40;;;;;;;11.12;79.46;99835.06;5061298;28;20053;-63
2023/04/01 04:02:39;;;;;;;8.82;1.63;;;;;;;11.12;79.55;99844.13;5075166;28;20063;-62
2023/04/01 04:05:07;;;;;;;11.98;1.80;;;;;;;11.42;78.93;99844.81;5059821;28;20048;-63
2023/04/01 04:07:35;;;;;;;13.18;2.20;;;;;;;11.42;79.06;99855.84;5075332;28;20044;-62
2023/04/01 04:10:06;;;;;;;;;;;;;;;11.27;78.73;99846.25;5060986;28;20380;-62
2023/04/01 04:12:33;;;;;;;9.15;1.48;;;;;;;11.16;78.72;99852.50;5073893;28;19920;-62
2023/04/01 04:15:01;;;;;;;11.25;1.92;;;;;;;11.15;79.47;99857.25;5076279;28;20055;-62
2023/04/01 04:17:28;;;;;;;9.60;2.13;;;;;;;11.05;79.63;99863.16;5057541;28;20057;-62
2023/04/01 04:19:56;;;;;;;9.57;1.92;;;;;;;11.07;80.00;99857.31;5076213;28;20056;-63
2023/04/01 04:22:23;;;;;;;9.73;1.42;;;;;;;11.05;79.72;99856.84;5057993;28;20052;-62
2023/04/01 04:24:50;;;;;;;12.32;2.20;;;;;;;11.14;79.30;99874.13;5076520;28;20404;-62
2023/04/01 04:27:18;;;;;;;10.60;2.15;;;;;;;11.20;78.93;99873.56;5074167;28;20071;-62
2023/04/01 04:29:59;;;;;;;10.40;2.05;;;;;;;11.11;79.20;99866.50;5077847;28;20064;-62
2023/04/01 04:32:27;;;;;;;11.00;2.10;;;;;;;11.21;78.93;99866.91;5073920;28;20041;-63
2023/04/01 04:34:56;;;;;;;10.85;1.70;;;;;;;11.08;79.66;99870.75;5076048;28;20179;-62
2023/04/01 04:37:25;;;;;;;9.20;1.23;;;;;;;11.10;79.24;99867.66;5074601;28;20518;-62
2023/04/01 04:39:53;;;;;;;13.93;1.80;;;;;;;11.22;78.13;99873.22;5073730;28;20067;-63
2023/04/01 04:42:20;;;;;;;11.10;2.20;;;;;;;11.20;78.44;99865.31;5067480;28;20403;-62
2023/04/01 04:44:48;;;;;;;15.05;2.20;;;;;;;11.39;78.19;99873.06;5069022;28;20068;-62
2023/04/01 04:47:16;;;;;;;12.18;1.95;;;;;;;11.47;77.17;99880.47;5074291;28;20055;-62
2023/04/01 04:49:43;;;;;;;12.00;2.42;;;;;;;11.25;77.42;99876.13;5075158;28;20071;-62
2023/04/01 04:52:10;;;;;;;13.70;2.20;;;;;;;11.17;77.43;99877.00;5074363;28;20044;-61
2023/04/01 04:54:38;;;;;;;18.83;2.83;;;;;;;11.34;77.42;99867.75;5075141;28;20045;-61
2023/04/01 04:57:05;;;;;;;14.80;2.20;;;;;;;11.36;76.46;99871.00;5073925;28;20048;-62
2023/04/01 04:59:39;;;;;;;19.17;2.75;;;;;;;11.38;76.95;99877.75;5074821;28;20518;-62
2023/04/01 05:02:19;;;;;;;13.82;1.73;;;;;;;11.51;76.07;99884.13;5071575;28;20041;-63
2023/04/01 05:04:47;;;;;;;11.85;1.75;;;;;;;11.38;76.65;99874.22;5072463;28;20420;-63
2023/04/01 05:07:14;;;;;;;12.98;1.75;;;;;;;11.28;76.21;99882.88;5075013;28;20052;-63
2023/04/01 05:09:42;;;;;;;7.82;2.00;;;;;;;11.37;77.37;99883.63;5075453;28;20056;-63
2023/04/01 05:12:12;;;;;;;11.82;2.30;;;;;;;11.19;77.05;99879.44;5074038;28;20049;-64
2023/04/01 05:14:55;;;;;;;13.18;1.60;;;;;;;11.44;76.52;99881.13;5059944;28;20059;-64
2023/04/01 05:17:23;;;;;;;12.77;1.38;;;;;;;11.60;76.05;99889.56;5055251;28;20044;-63
2023/04/01 05:19:51;;;;;;;12.88;1.98;;;;;;;11.59;75.63;99894.28;5075617;28;20049;-63
2023/04/01 05:22:20;;;;;;;12.82;1.67;;;;;;;11.65;75.24;99881.09;5074751;28;20041;-64
2023/04/01 05:24:48;;;;;;;9.98;1.60;;;;;;;11.58;75.58;99892.66;5076024;28;20049;-65
2023/04/01 05:27:15;;;;;;;10.15;1.60;;;;;;;11.28;76.37;99900.25;5068262;28;20040;-63
2023/04/01 05:29:43;;;;;;;9.43;1.67;;;;;;;11.12;77.11;99903.97;5055313;28;20049;-62
2023/04/01 05:32:31;;;;;;;9.05;1.65;;;;;;;11.21;77.28;99904.69;5073437;28;20063;-63
2023/04/01 05:34:58;;;;;;;6.10;1.15;;;;;;;11.24;76.89;99899.28;5075232;28;20060;-65
2023/04/01 05:37:25;;;;;;;11.88;1.80;;;;;;;11.10;77.88;99901.56;5073634;28;20514;-65
2023/04/01 05:39:54;;;;;;;9.57;1.98;;;;;;;11.22;77.65;99904.38;5064302;28;20049;-63
2023/04/01 05:42:22;;;;;;;13.30;1.60;;;;;;;11.04;77.88;99913.91;5073615;28;20048;-62
2023/04/01 05:44:49;;;;;;;7.32;1.27;;;;;;;11.02;78.24;99915.38;5058384;28;20141;-63
2023/04/01 05:47:35;;;;;;;8.25;1.73;;;;;;;10.89;78.02;99919.22;5074300;28;20045;-63
2023/04/01 05:50:03;;;;;;;7.20;1.05;;;;;;;10.96;78.16;99912.03;5076154;28;20070;-62
2023/04/01 05:52:31;;;;;;;10.35;1.42;;;;;;;11.01;78.61;99916.53;5073919;28;20395;-64
2023/04/01 05:55:00;;;;;;;8.60;1.63;;;;;;;11.12;77.99;99928.78;5075264;28;20610;-64
2023/04/01 05:57:27;;;;;;;7.85;1.38;;;;;;;11.15;77.29;99923.38;5074625;28;20052;-64
2023/04/01 05:59:54;;;;;;;7.97;1.50;;;;;;;11.24;76.20;99940.66;5074405;28;20052;-63
2023/04/01 06:02:22;;;;;;;10.93;1.77;;;;;;;11.06;77.11;99930.91;5072234;28;20384;-63
2023/04/01 06:04:57;;;;;;;10.75;1.60;;;;;;;11.16;77.07;99919.47;5075583;28;20419;-63
2023/04/01 06:07:25;;;;;;;10.00;1.40;;;;;;;11.04;77.34;99940.66;5044649;28;20049;-63
2023/04/01 06:09:52;;;;;;;12.45;1.63;;;;;;;11.10;77.57;99936.56;5056308;28;20049;-63
2023/04/01 06:12:40;;;;;;;7.38;1.52;;;;;;;11.18;76.82;99938.44;5054215;28;20049;-65
2023/04/01 06:15:17;;;;;;;7.63;1.27;;;;;;;11.13;76.34;99953.25;5057893;28;20059;-63
2023/04/01 06:18:03;;;;;;;14.73;2.05;;;;;;;11.02;76.84;99948.44;5074902;28;20056;-63
2023/04/01 06:20:50;;;;;;;9.05;1.55;;;;;;;11.42;76.37;99951.56;5068521;28;20052;-63
2023/04/01 06:23:24;;;;;;;12.60;1.83;;;;;;;11.28;75.49;99960.06;5075006;28;20060;-63
2023/04/01 06:26:10;;;;;;;12.00;2.00;;;;;;;11.03;75.50;99964.66;5072993;28;20052;-63
2023/04/01 06:28:50;;;;;;;12.45;1.70;;;;;;;11.06;75.63;99946.63;5075229;28;20048;-64
2023/04/01 06:31:25;;;;;;;7.35;1.30;;;;;;;11.22;75.55;99956.75;5071414;28;20040;-64
2023/04/01 06:34:08;;;;;;;9.45;1.30;;;;;;;11.34;74.29;99958.75;5074202;28;20049;-63
2023/04/01 06:36:47;;;;;;;8.82;1.48;;;;;;;11.32;73.72;99966.53;5058351;28;20056;-64
2023/04/01 06:39:16;;;;;;;9.55;1.60;;;;;;;11.53;72.75;99969.28;5079751;28;20056;-63
2023/04/01 06:42:05;;;;;;;10.20;1.50;;;;;;;11.31;73.18;99976.75;5076481;28;20065;-64
2023/04/01 06:45:10;;;;;;;7.55;1.52;;;;;;;11.35;73.66;99974.13;5062087;28;20057;-65
2023/04/01 06:48:04;;;;;;;8.95;1.50;;;;;;;11.38;72.87;99971.50;5078807;28;20052;-64
2023/04/01 06:51:29;;;;;;;9.38;1.40;;;;;;;11.66;73.19;99980.09;5078025;28;20048;-64
2023/04/01 06:54:18;;;;;;;9.68;1.45;;;;;;;11.57;72.61;99981.25;5079698;28;20044;-63
2023/04/01 06:57:24;;;;;;;8.77;2.13;;;;;;;11.35;73.20;99983.22;5075263;28;20546;-64
2023/04/01 06:59:54;;;;;;;9.63;1.40;;;;;;;11.44;73.63;99976.84;5044346;28;20057;-63
2023/04/01 07:02:39;;;;;;;10.95;1.20;;;;;;;11.35;73.61;99985.97;5059729;28;20044;-62
2023/04/01 07:05:07;;;;;;;12.25;1.65;;;;;;;11.27;74.21;99981.34;5075141;28;20064;-62
2023/04/01 07:07:48;;;;;;;10.90;2.10;;;;;;;11.14;74.15;99987.91;5072715;28;20040;-63
2023/04/01 07:10:20;;;;;;;13.02;1.73;;;;;;;11.43;74.13;99987.06;5059299;28;20052;-64
2023/04/01 07:12:50;;;;;;;4.82;1.10;;;;;;;11.52;73.22;99996.06;5062561;28;20067;-63
2023/04/01 07:15:50;;;;;;;7.13;1.73;;;;;;;11.67;72.95;99992.72;5044737;28;20053;-62
2023/04/01 07:18:24;;;;;;;8.95;1.48;;;;;;;11.65;72.26;99988.69;5060507;28;20052;-64
2023/04/01 07:20:53;;;;;;;10.02;1.90;;;;;;;11.71;71.41;99985.41;5076245;28;20048;-64
2023/04/01 07:23:24;;;;;;;11.23;1.75;;;;;;;11.58;71.15;99999.41;5077862;28;20067;-64
2023/04/01 07:26:04;;;;;;;8.25;1.58;;;;;;;11.46;71.95;100002.09;5059439;28;20048;-63
2023/04/01 07:28:53;;;;;;;10.45;1.52;;;;;;;11.42;72.08;99996.47;5063484;28;20061;-63
2023/04/01 07:32:06;;;;;;;12.40;1.50;;;;;;;11.53;71.76;100005.13;5058735;28;20384;-62
2023/04/01 07:34:40;;;;;;;;;;;;;;;11.55;71.13;99991.81;5074298;28;20057;-63
2023/04/01 07:37:22;;;;;;;9.18;1.80;;;;;;;11.53;71.52;100005.94;5075887;28;19951;-63
2023/04/01 07:40:06;;;;;;;18.63;2.13;;;;;;;11.60;71.54;100016.44;5063886;28;20538;-63
2023/04/01 07:42:42;;;;;;;19.58;2.50;;;;;;;11.56;71.45;99999.75;5059954;28;20052;-62
2023/04/01 07:45:20;;;;;;;11.90;1.48;;;;;;;11.86;71.77;100008.78;5078420;28;20053;-63
2023/04/01 07:47:58;;;;;;;10.20;1.50;;;;;;;11.50;71.45;100008.56;5057106;28;20052;-62
2023/04/01 07:50:28;;;;;;;6.65;1.15;;;;;;;11.77;72.55;99999.78;5058916;28;20049;-62
2023/04/01 07:52:59;;;;;;;14.00;2.30;;;;;;;11.73;71.24;100018.97;5075724;28;20052;-63
2023/04/01 07:55:37;;;;;;;13.98;1.40;;;;;;;11.81;71.02;100015.31;5074557;28;20045;-62
2023/04/01 07:58:08;;;;;;;10.55;1.48;;;;;;;11.90;70.70;100018.00;5067888;28;20053;-66
2023/04/01 08:00:51;;;;;;;14.38;2.20;;;;;;;11.68;69.97;100027.44;5041920;28;20063;-67
2023/04/01 08:03:53;;;;;;;10.68;1.73;;;;;;;11.77;70.07;100035.66;5058566;28;20064;-66
2023/04/01 08:06:40;;;;;;;8.82;1.40;;;;;;;12.13;69.24;100030.28;5049713;28;20411;-66
2023/04/01 08:09:33;;;;;;;8.65;1.75;;;;;;;12.02;69.02;100026.31;5040017;28;20059;-67
2023/04/01 08:12:24;;;;;;;9.50;1.40;;;;;;;11.95;68.46;100043.44;5051174;28;20053;-66
2023/04/01 08:15:21;;;;;;;12.77;2.10;;;;;;;11.89;69.24;100038.47;5078038;28;20056;-66
2023/04/01 08:18:20;;;;;;;10.63;1.20;;;;;;;11.93;68.06;100036.63;5074876;28;20139;-65
2023/04/01 08:20:53;;;;;;;10.18;1.80;;;;;;;12.10;68.15;100039.25;5064814;28;20052;-64
2023/04/01 08:23:28;;;;;;;5.45;1.10;;;;;;;12.50;67.06;100045.00;5074877;28;20048;-65
2023/04/01 08:26:07;;;;;;;6.25;1.10;;;;;;;12.44;66.43;100041.63;5057401;28;20048;-64
2023/04/01 08:28:44;;;;;;;8.80;1.77;;;;;;;12.35;65.95;100050.03;5060336;28;20053;-65
2023/04/01 08:31:24;;;;;;;6.65;1.52;;;;;;;12.26;66.17;100043.78;5073280;28;20059;-65
2023/04/01 08:33:53;;;;;;;8.05;1.08;;;;;;;12.34;65.10;100039.31;5076002;28;20491;-66
2023/04/01 08:36:26;;;;;;;5.40;1.48;;;;;;;12.43;65.17;100031.72;5074837;28;20392;-65
2023/04/01 08:39:38;;;;;;;4.93;1.33;;;;;;;12.63;64.45;100041.91;5076040;28;20044;-75
2023/04/01 08:42:13;;;;;;;6.80;1.38;;;;;;;12.80;64.91;100047.19;5059256;28;20412;-64
2023/04/01 08:45:00;;;;;;;10.63;1.45;;;;;;;12.72;63.13;100050.91;5077766;28;20051;-64
2023/04/01 08:47:38;;;;;;;5.75;1.30;;;;;;;12.56;64.01;100055.47;5053195;28;20048;-67
2023/04/01 08:50:37;;;;;;;12.07;2.00;;;;;;;12.38;65.85;100052.09;5023526;28;20053;-65
2023/04/01 08:53:18;;;;;;;12.60;2.10;;;;;;;12.40;64.79;100048.97;5056110;28;20045;-65
2023/04/01 08:55:57;;;;;;;11.07;1.58;;;;;;;12.53;64.79;100053.41;5063221;28;20059;-64
2023/04/01 08:58:46;;;;;;;7.07;1.70;;;;;;;12.85;65.13;100057.25;5071174;28;20051;-65
2023/04/01 09:01:58;;;;;;;11.68;1.83;;;;;;;12.84;65.14;100056.44;5057888;28;20049;-64
2023/04/01 09:05:12;;;;;;;15.43;2.00;;;;;;;12.58;66.29;100055.94;5069577;28;20048;-64
2023/04/01 09:08:04;;;;;;;11.55;1.98;;;;;;;12.68;66.43;100047.19;5057595;28;20589;-65
2023/04/01 09:10:52;;;;;;;6.97;1.60;;;;;;;12.81;64.88;100042.50;5062920;28;20052;-65
2023/04/01 09:14:07;;;;;;;8.57;2.28;;;;;;;13.15;64.92;100058.66;5071473;28;20052;-65
2023/04/01 09:17:16;;;;;;;12.10;1.85;;;;;;;12.59;65.66;100048.47;5068242;28;20499;-64
2023/04/01 09:20:11;;;;;;;13.95;1.77;;;;;;;12.90;66.19;100041.22;5032797;28;20061;-64
2023/04/01 09:23:07;;;;;;;10.43;1.80;;;;;;;13.04;64.74;100057.50;5073880;28;20052;-65
2023/04/01 09:25:53;;;;;;;10.75;1.70;;;;;;;12.72;65.54;100053.66;5065777;28;20549;-70
2023/04/01 09:28:54;;;;;;;11.25;1.70;;;;;;;13.01;65.91;100058.97;5066407;28;20048;-71
2023/04/01 09:31:56;;;;;;;11.43;2.08;;;;;;;13.14;63.87;100055.09;5068212;28;20071;-70
2023/04/01 09:34:54;;;;;;;13.55;2.03;;;;;;;12.99;65.12;100066.78;5072988;28;20575;-71
2023/04/01 09:37:46;;;;;;;11.50;2.42;;;;;;;12.77;63.74;100063.66;5072144;28;20044;-71
2023/04/01 09:40:30;;;;;;;16.45;2.25;;;;;;;13.14;64.74;100060.63;5073958;28;20526;-64
2023/04/01 09:43:39;;;;;;;8.18;1.80;;;;;;;13.12;63.43;100057.41;5066843;28;20053;-64
2023/04/01 09:46:13;;;;;;;13.80;1.70;;;;;;;13.17;62.17;100068.22;5064392;28;20115;-65
2023/04/01 09:48:47;;;;;;;11.00;1.73;;;;;;;13.18;60.36;100058.75;5068391;28;20049;-64
2023/04/01 09:51:41;;;;;;;12.90;2.30;;;;;;;13.60;61.29;100072.31;5066362;28;20049;-64
2023/04/01 09:54:39;;;;;;;8.70;1.38;;;;;;;13.20;60.46;100067.53;5066600;28;20041;-64
2023/04/01 09:57:18;;;;;;;8.70;1.67;;;;;;;13.11;60.25;100075.13;5044228;28;20060;-63
2023/04/01 10:00:15;;;;;;;11.73;1.42;;;;;;;12.81;60.14;100070.94;5062900;28;20068;-63
2023/04/01 10:03:10;;;;;;;6.60;1.60;;;;;;;12.86;58.77;100084.53;5071004;28;20067;-63
2023/04/01 10:06:15;;;;;;;6.97;1.55;;;;;;;13.06;58.91;100064.28;5043404;28;20049;-63
2023/04/01 10:09:04;;;;;;;10.93;1.45;;;;;;;13.31;57.66;100078.91;5064576;28;20427;-64
2023/04/01 10:12:05;;;;;;;8.43;1.88;;;;;;;13.51;58.42;100092.63;5051172;28;20053;-63
2023/04/01 10:14:57;;;;;;;8.77;1.55;;;;;;;13.31;56.71;100096.34;5058441;28;20045;-64
2023/04/01 10:17:41;;;;;;;7.20;1.50;;;;;;;13.37;56.01;100080.31;5068759;28;20049;-63
2023/04/01 10:20:31;;;;;;;10.10;1.77;;;;;;;13.29;55.64;100082.03;5066147;28;20059;-64
2023/04/01 10:23:29;;;;;;;9.80;1.70;;;;;;;13.49;55.69;100070.00;5071889;28;20423;-63
2023/04/01 10:26:12;;;;;;;5.85;1.23;;;;;;;13.78;54.06;100071.69;5072314;28;20124;-62
2023/04/01 10:28:47;;;;;;;7.15;1.50;;;;;;;13.97;52.93;100082.94;5057073;28;20045;-63
2023/04/01 10:32:03;;;;;;;12.85;1.85;;;;;;;13.93;53.98;100067.41;5064424;28;20072;-64
2023/04/01 10:34:48;;;;;;;5.70;1.40;;;;;;;14.11;53.15;100068.69;5058102;28;20155;-65
2023/04/01 10:37:32;;;;;;;7.22;1.45;;;;;;;14.28;52.45;100076.72;5072925;28;20044;-64
2023/04/01 10:40:24;;;;;;;5.43;1.60;;;;;;;13.95;53.16;100065.06;5057375;28;20578;-63
2023/04/01 10:43:34;;;;;;;6.72;1.83;;;;;;;13.82;53.25;100086.47;5068620;28;20049;-63
2023/04/01 10:46:43;;;;;;;10.38;1.67;;;;;;;13.67;53.25;100078.06;5070268;28;20079;-64
2023/04/01 10:49:40;;;;;;;8.90;1.50;;;;;;;13.80;53.43;100074.94;5052642;28;20056;-64
2023/04/01 10:52:26;;;;;;;5.55;1.20;;;;;;;14.13;51.50;100083.00;5067717;28;20491;-63
2023/04/01 10:56:02;;;;;;;6.95;1.35;;;;;;;14.02;51.89;100071.63;5015476;28;20062;-64
2023/04/01 10:59:04;;;;;;;6.40;1.27;;;;;;;14.07;52.16;100087.19;5073998;28;20068;-65
2023/04/01 11:02:28;;;;;;;7.50;1.38;;;;;;;13.54;51.97;100064.28;5017133;28;20524;-65
2023/04/01 11:05:33;;;;;;;7.82;1.65;;;;;;;13.61;52.01;100065.63;5026445;28;20050;-63
2023/04/01 11:08:48;;;;;;;6.85;1.20;;;;;;;13.88;51.16;100051.81;5059214;28;20076;-63
2023/04/01 11:11:53;;;;;;;12.02;1.65;;;;;;;14.18;51.12;100052.28;5044457;28;20049;-65
2023/04/01 11:14:46;;;;;;;9.60;1.48;;;;;;;14.34;51.17;100058.69;5065341;28;20049;-64
2023/04/01 11:17:35;;;;;;;8.00;1.70;;;;;;;14.39;51.23;100061.22;5046735;28;20051;-64
2023/04/01 11:20:09;;;;;;;10.38;2.13;;;;;;;14.24;51.77;100054.44;5073551;28;20045;-64
2023/04/01 11:22:52;;;;;;;9.85;1.50;;;;;;;14.22;50.83;100047.66;5073669;28;20060;-64
2023/04/01 11:25:45;;;;;;;9.90;1.70;;;;;;;14.38;51.74;100048.53;5070926;28;20055;-64
2023/04/01 11:28:34;;;;;;;6.22;1.45;;;;;;;14.70;50.83;100044.63;5058238;28;20052;-65
2023/04/01 11:31:29;;;;;;;8.52;1.95;;;;;;;15.04;50.78;100035.59;5061577;28;20057;-64
2023/04/01 11:34:01;;;;;;;7.95;1.33;;;;;;;14.86;49.79;100053.75;5077759;28;20056;-66
2023/04/01 11:36:39;;;;;;;6.20;1.23;;;;;;;14.49;49.44;100052.38;5075696;28;20056;-69
2023/04/01 11:39:24;;;;;;;;;;;;;;;14.23;49.42;100052.81;5076826;28;20048;-63
2023/04/01 11:42:05;;;;;;;;;;;;;;;14.13;51.00;100052.53;5072167;28;19924;-66
2023/04/01 11:45:00;;;;;;;7.10;1.50;;;;;;;14.23;50.73;100040.94;5074281;28;19920;-66
2023/04/01 11:47:36;;;;;;;7.30;1.45;;;;;;;14.22;50.37;100044.88;5075805;28;20048;-66
2023/04/01 11:50:38;;;;;;;9.82;1.40;;;;;;;14.12;49.57;100054.47;5066629;28;20389;-65
2023/04/01 11:53:18;;;;;;;9.45;1.35;;;;;;;14.15;50.49;100064.06;5003640;28;20098;-65
2023/04/01 11:55:54;;;;;;;10.52;1.60;;;;;;;14.02;50.06;100068.03;5061951;28;20053;-66
2023/04/01 11:58:42;;;;;;;10.55;1.80;;;;;;;14.18;50.34;100061.41;5064199;28;20068;-65
2023/04/01 12:01:37;;;;;;;5.72;1.08;;;;;;;14.07;49.87;100054.75;5067723;28;20055;-66
2023/04/01 12:04:15;;;;;;;8.73;1.10;;;;;;;14.23;50.68;100063.91;5078108;28;20434;-65
2023/04/01 12:06:52;;;;;;;5.55;1.10;;;;;;;14.09;50.57;100082.06;5074131;28;20491;-65
2023/04/01 12:09:31;;;;;;;7.03;1.50;;;;;;;13.99;51.46;100069.56;5067873;28;20049;-64
2023/04/01 12:12:13;;;;;;;5.40;1.25;;;;;;;14.12;50.94;100070.31;5074610;28;20063;-66
2023/04/01 12:15:02;;;;;;;9.52;1.45;;;;;;;14.36;50.12;100075.78;5071528;28;20059;-66
2023/04/01 12:17:48;;;;;;;7.05;1.35;;;;;;;14.09;49.62;100051.63;5074768;28;20045;-65
2023/04/01 12:20:39;;;;;;;6.90;1.20;;;;;;;14.11;50.56;100071.47;5064909;28;20403;-64
2023/04/01 12:23:09;;;;;;;;;;;;;;;14.21;49.13;100079.28;5061716;28;20056;-68